Time;durP1;ratioP1;P1;durP2;ratioP2;P2;SDS_P1;SDS_P2;PMS_P1;PMS_P2;Temp;Humidity;BMP_temperature;BMP_pressure;BME280_temperature;BME280_humidity;BME280_pressure;Samples;Min_cycle;Max_cycle;Signal;HPM_P1;HPM_P2
2023/05/25 04:16:32;;;;;;;22.48;14.87;;;;;;;14.71;100.00;100554.88;5595656;31;492839;-86
2023/05/25 04:19:43;;;;;;;21.63;15.47;;;;;;;14.71;100.00;100554.88;5587701;31;33682;-86
2023/05/25 04:22:52;;;;;;;17.50;13.68;;;;;;;14.48;100.00;100553.69;5583509;32;33619;-86
2023/05/25 04:26:02;;;;;;;18.73;13.45;;;;;;;14.72;100.00;100563.75;5583434;31;33689;-86
2023/05/25 04:29:12;;;;;;;20.12;13.30;;;;;;;14.92;100.00;100563.34;5583517;31;34470;-86
2023/05/25 04:32:20;;;;;;;16.23;12.75;;;;;;;15.03;100.00;100567.16;5584313;32;33383;-86
2023/05/25 04:35:27;;;;;;;16.55;13.02;;;;;;;15.27;100.00;100567.31;5597187;31;33951;-86
2023/05/25 04:38:32;;;;;;;15.65;11.93;;;;;;;15.43;100.00;100569.00;5593056;31;34693;-86
2023/05/25 04:41:40;;;;;;;17.25;12.37;;;;;;;15.35;100.00;100578.34;5583898;32;34367;-86
2023/05/25 04:44:48;;;;;;;15.25;11.48;;;;;;;15.50;100.00;100579.13;5583275;32;34463;-86
2023/05/25 04:47:52;;;;;;;15.55;11.60;;;;;;;15.93;100.00;100569.19;5582973;32;33887;-87
2023/05/25 04:51:01;;;;;;;15.30;12.07;;;;;;;16.12;100.00;100566.09;5583904;32;34357;-86
2023/05/25 04:54:09;;;;;;;15.30;12.03;;;;;;;16.03;100.00;100574.75;5586463;31;34303;-87
2023/05/25 04:57:19;;;;;;;15.77;11.63;;;;;;;16.10;100.00;100572.50;5598446;32;34597;-88
2023/05/25 05:00:27;;;;;;;13.75;11.70;;;;;;;16.29;100.00;100567.56;5591157;32;35153;-87
2023/05/25 05:03:36;;;;;;;12.75;10.82;;;;;;;16.45;100.00;100566.47;5594117;32;33498;-87
2023/05/25 05:06:43;;;;;;;12.75;10.25;;;;;;;16.89;100.00;100579.44;5590606;31;35649;-87
2023/05/25 05:09:52;;;;;;;11.50;10.27;;;;;;;17.42;100.00;100575.56;5583059;32;33863;-92
2023/05/25 05:13:01;;;;;;;14.98;10.82;;;;;;;17.84;100.00;100577.75;5586993;32;34099;-90
2023/05/25 05:16:10;;;;;;;13.20;9.75;;;;;;;18.25;100.00;100576.37;5583725;31;34334;-88
2023/05/25 05:19:19;;;;;;;13.43;9.45;;;;;;;18.53;100.00;100578.69;5583506;32;34436;-88
2023/05/25 05:22:27;;;;;;;12.93;9.05;;;;;;;18.60;100.00;100587.97;5583406;32;33702;-88
2023/05/25 05:25:36;;;;;;;14.23;9.02;;;;;;;19.70;100.00;100586.16;5580504;32;34159;-88
2023/05/25 05:28:44;;;;;;;;;;;;;;;22.19;96.55;100579.31;5571618;32;33737;-88
2023/05/25 05:31:54;;;;;;;10.20;8.40;;;;;;;24.00;83.39;100588.59;5570713;32;34079;-88
2023/05/25 05:35:04;;;;;;;16.95;8.30;;;;;;;25.16;75.53;100584.53;5571358;32;33471;-88
2023/05/25 05:38:13;;;;;;;9.15;8.18;;;;;;;26.57;69.28;100588.12;5568582;32;33949;-89
2023/05/25 05:41:22;;;;;;;8.27;7.45;;;;;;;26.91;65.16;100586.97;5600787;26;34322;-88
2023/05/25 05:44:26;;;;;;;8.52;7.40;;;;;;;27.49;62.53;100591.16;5533866;32;33851;-89
2023/05/25 05:47:33;;;;;;;9.52;7.90;;;;;;;27.49;61.29;100589.25;5532792;32;33639;-89
2023/05/25 05:50:42;;;;;;;8.82;8.02;;;;;;;26.96;62.92;100587.28;5532071;32;33822;-89
2023/05/25 05:53:50;;;;;;;9.13;8.23;;;;;;;26.59;63.87;100586.91;5540854;32;32320;-88
2023/05/25 05:56:56;;;;;;;9.60;7.97;;;;;;;25.29;66.80;100596.78;5589363;26;33783;-87
2023/05/25 06:00:05;;;;;;;9.93;8.30;;;;;;;25.72;65.58;100602.06;5562976;32;34299;-86
2023/05/25 06:03:16;;;;;;;8.18;7.47;;;;;;;26.20;64.52;100604.03;5553145;32;33928;-92
2023/05/25 06:09:59;;;;;;;9.13;8.23;;;;;;;27.93;56.82;100614.97;5533377;32;34380;-87
2023/05/25 06:13:06;;;;;;;10.35;8.20;;;;;;;24.57;65.72;100608.91;5538309;32;33902;-88
2023/05/25 06:16:11;;;;;;;10.82;8.00;;;;;;;25.59;63.50;100605.28;5543537;32;33463;-88
2023/05/25 06:19:15;;;;;;;9.30;8.40;;;;;;;26.57;59.65;100607.16;5542054;32;33888;-87
2023/05/25 06:22:20;;;;;;;10.20;7.90;;;;;;;27.31;55.68;100609.47;5541085;32;32434;-87
2023/05/25 06:25:29;;;;;;;11.30;7.30;;;;;;;25.59;60.40;100604.47;5536118;32;33184;-87
2023/05/25 06:28:35;;;;;;;8.90;8.07;;;;;;;26.98;56.59;100606.13;5531832;32;33827;-87
2023/05/25 06:31:40;;;;;;;8.75;7.85;;;;;;;26.67;55.89;100606.94;5543033;32;33909;-87
2023/05/25 06:34:44;;;;;;;10.85;8.00;;;;;;;26.40;57.46;100609.09;5543037;32;33973;-87
2023/05/25 06:37:48;;;;;;;7.75;6.97;;;;;;;25.37;60.21;100610.34;5577417;26;33353;-87
2023/05/25 06:40:53;;;;;;;12.07;7.70;;;;;;;24.50;63.84;100603.31;5541604;32;33712;-88
2023/05/25 06:43:59;;;;;;;8.65;7.35;;;;;;;23.91;64.93;100602.09;5547427;32;34015;-89
2023/05/25 06:47:05;;;;;;;9.10;7.45;;;;;;;23.76;66.17;100604.53;5555563;32;34809;-88
2023/05/25 06:50:11;;;;;;;11.43;7.60;;;;;;;23.31;69.44;100613.59;5534009;32;34187;-88
2023/05/25 06:53:16;;;;;;;8.52;7.22;;;;;;;23.62;66.49;100614.06;5537129;32;33822;-87
2023/05/25 06:56:23;;;;;;;8.23;6.93;;;;;;;23.30;67.69;100615.44;5543529;32;34028;-87
2023/05/25 06:59:29;;;;;;;8.27;7.03;;;;;;;23.36;67.08;100614.88;5546090;32;34086;-87
2023/05/25 07:02:37;;;;;;;8.30;7.15;;;;;;;23.84;64.70;100614.59;5540682;32;35052;-87
2023/05/25 07:05:43;;;;;;;8.30;7.50;;;;;;;23.24;65.91;100608.78;5539468;32;32493;-87
2023/05/25 07:08:48;;;;;;;9.35;7.18;;;;;;;23.77;65.24;100619.78;5545409;32;33536;-87
2023/05/25 07:11:52;;;;;;;8.80;7.07;;;;;;;23.72;66.15;100622.09;5533854;32;33602;-89
2023/05/25 07:14:57;;;;;;;7.97;6.80;;;;;;;24.44;64.22;100626.50;5544362;32;34970;-88
2023/05/25 07:44:23;;;;;;;7.05;6.37;;;;;;;24.71;60.18;100621.03;4883100;30;20092;-89
2023/05/25 07:47:27;;;;;;;9.20;7.12;;;;;;;25.05;56.73;100627.44;5463309;32;34371;-87
2023/05/25 07:50:34;;;;;;;9.85;7.00;;;;;;;25.52;58.36;100628.69;5462586;32;33254;-88
2023/05/25 07:53:41;;;;;;;9.65;6.90;;;;;;;25.69;52.53;100627.72;5517092;27;33780;-86
2023/05/25 07:56:54;;;;;;;7.10;6.40;;;;;;;25.80;54.31;100626.50;5516959;27;33992;-90
2023/05/25 08:00:00;;;;;;;8.52;7.03;;;;;;;26.29;53.31;100634.81;5524065;27;33871;-89
2023/05/25 08:03:36;;;;;;;8.30;7.25;;;;;;;26.76;52.17;100633.94;871463;27;20493;-90
2023/05/25 08:06:52;;;;;;;8.18;6.95;;;;;;;25.70;54.44;100639.44;5376460;33;32643;-88
2023/05/25 08:09:56;;;;;;;10.23;7.50;;;;;;;25.30;56.11;100629.19;5378059;33;33731;-88
2023/05/25 08:13:02;;;;;;;7.55;6.80;;;;;;;26.21;52.52;100627.47;5390483;32;33555;-89
2023/05/25 08:16:07;;;;;;;10.80;8.38;;;;;;;26.49;51.05;100624.34;5379964;32;33557;-90
2023/05/25 08:19:11;;;;;;;8.38;7.20;;;;;;;26.36;53.17;100631.19;5381443;33;33939;-88
2023/05/25 08:22:15;;;;;;;8.23;6.60;;;;;;;26.54;50.59;100632.84;5380372;33;34909;-90
2023/05/25 08:25:21;;;;;;;12.10;6.87;;;;;;;26.88;49.93;100628.09;5382099;33;33956;-89
2023/05/25 08:28:26;;;;;;;8.90;6.43;;;;;;;26.74;49.51;100637.84;5379958;33;33868;-89
2023/05/25 08:35:19;;;;;;;8.77;6.43;;;;;;;27.02;48.25;100632.84;966064;27;20412;-89
2023/05/25 08:38:26;;;;;;;7.12;6.43;;;;;;;27.01;49.02;100633.00;5498846;27;32067;-90
2023/05/25 08:41:35;;;;;;;7.30;6.55;;;;;;;27.25;48.40;100634.72;5470066;27;33545;-89
2023/05/25 08:44:38;;;;;;;10.82;7.30;;;;;;;28.43;47.62;100629.97;5463866;32;33133;-90
2023/05/25 08:59:01;;;;;;;9.07;7.15;;;;;;;29.14;45.75;100642.22;2421680;30;20592;-90
2023/05/25 09:02:29;;;;;;;7.62;6.93;;;;;;;28.18;46.96;100639.25;5458452;32;34991;-90
2023/05/25 09:05:34;;;;;;;8.45;7.60;;;;;;;28.15;48.19;100644.22;5478825;32;34009;-89
2023/05/25 09:08:41;;;;;;;8.77;7.57;;;;;;;27.78;49.54;100636.75;5468121;32;34249;-88
2023/05/25 09:11:44;;;;;;;8.68;7.78;;;;;;;27.74;50.54;100632.69;5472428;32;34110;-90
2023/05/25 09:14:50;;;;;;;12.23;8.10;;;;;;;27.45;51.09;100626.91;5472879;32;34044;-90
2023/05/25 09:17:55;;;;;;;8.65;7.75;;;;;;;26.31;53.20;100632.75;5479105;32;35288;-90
2023/05/25 09:21:02;;;;;;;10.93;8.52;;;;;;;24.92;58.65;100631.47;5465005;32;33933;-90
2023/05/25 09:24:06;;;;;;;10.02;8.07;;;;;;;25.90;56.16;100631.75;5464874;32;33609;-89
2023/05/25 09:27:18;;;;;;;10.40;8.30;;;;;;;26.71;54.72;100621.91;5474331;32;33949;-91
2023/05/25 09:30:21;;;;;;;14.05;8.82;;;;;;;26.50;55.56;100626.06;5461400;32;34479;-91
2023/05/25 09:52:05;;;;;;;9.70;7.45;;;;;;;28.44;48.93;100646.16;5453669;32;32828;-87
2023/05/25 10:02:40;;;;;;;9.00;8.10;;;;;;;26.14;57.03;100637.34;3578239;27;20116;-90
2023/05/25 10:21:08;;;;;;;8.95;7.40;;;;;;;27.76;52.73;100640.69;5448776;32;20085;-89
2023/05/25 10:24:33;;;;;;;10.00;6.78;;;;;;;27.11;52.89;100636.34;5473577;32;34404;-91
2023/05/25 10:27:42;;;;;;;7.30;6.60;;;;;;;29.97;45.56;100630.81;5468750;32;33797;-89
2023/05/25 10:30:50;;;;;;;7.00;6.40;;;;;;;33.02;37.71;100637.56;5478904;32;33867;-90
2023/05/25 10:33:58;;;;;;;7.22;6.53;;;;;;;33.01;36.66;100634.00;5477351;32;32876;-90
2023/05/25 10:37:07;;;;;;;8.02;6.57;;;;;;;32.57;37.37;100625.50;5472492;32;33827;-90
2023/05/25 10:40:15;;;;;;;8.27;6.50;;;;;;;28.74;44.31;100629.75;5480693;32;34184;-90
2023/05/25 10:43:21;;;;;;;7.28;6.57;;;;;;;28.41;46.83;100630.16;5541539;27;34877;-89
2023/05/25 10:46:27;;;;;;;8.45;6.80;;;;;;;27.32;49.26;100615.78;5483330;32;35148;-91
2023/05/25 12:14:11;;;;;;;5.90;5.30;;;;;;;26.55;53.44;100547.50;5468905;27;32208;-88
2023/05/25 12:17:21;;;;;;;5.93;5.43;;;;;;;26.82;49.19;100553.47;5451753;32;34182;-91
2023/05/25 13:02:30;;;;;;;6.30;5.70;;;;;;;24.55;58.33;100527.75;989937;27;20452;31
2023/05/25 13:12:59;;;;;;;7.70;5.53;;;;;;;25.02;58.02;100504.66;5460457;32;20090;-87
2023/05/25 13:27:15;;;;;;;6.82;5.65;;;;;;;25.24;54.89;100496.00;5274920;30;20483;-87
2023/05/25 13:30:23;;;;;;;6.62;6.03;;;;;;;25.67;54.66;100491.22;5438920;32;33499;-87
2023/05/25 13:33:29;;;;;;;13.77;6.85;;;;;;;25.99;55.35;100491.28;5441515;32;33878;-88
2023/05/25 13:36:36;;;;;;;8.02;6.03;;;;;;;26.01;56.27;100474.81;5449440;32;34690;-88
2023/05/25 13:39:41;;;;;;;7.12;6.37;;;;;;;26.46;55.80;100478.69;5437324;32;34059;-86
2023/05/25 13:43:06;;;;;;;5.95;5.45;;;;;;;26.48;57.02;100478.53;5439374;32;34519;-87
2023/05/25 13:46:31;;;;;;;6.32;5.68;;;;;;;26.20;54.58;100474.37;5438028;32;34164;-86
2023/05/25 13:49:58;;;;;;;6.95;5.60;;;;;;;25.98;54.21;100465.13;5444427;32;33948;-87
2023/05/25 13:53:28;;;;;;;6.78;5.43;;;;;;;25.63;54.29;100459.12;5461950;32;34358;-86
2023/05/25 13:56:55;;;;;;;6.62;5.00;;;;;;;25.86;53.46;100458.41;5453152;32;34559;-86
2023/05/25 14:00:00;;;;;;;6.93;5.32;;;;;;;26.06;52.69;100447.97;5455864;32;34716;-85
2023/05/25 14:03:10;;;;;;;9.02;5.30;;;;;;;26.09;53.01;100448.44;5462916;32;33846;-86
2023/05/25 14:06:18;;;;;;;10.05;5.30;;;;;;;25.88;54.98;100449.03;5466971;32;34799;-86
2023/05/25 14:09:24;;;;;;;6.90;5.25;;;;;;;24.92;56.89;100448.84;5473198;32;34261;-87
2023/05/25 14:12:30;;;;;;;8.05;5.50;;;;;;;25.07;56.52;100447.16;5475828;32;33960;-87
2023/05/25 14:15:38;;;;;;;7.70;5.55;;;;;;;25.34;56.50;100444.25;5477890;32;33857;-87
2023/05/25 14:18:47;;;;;;;5.95;5.28;;;;;;;25.52;56.66;100444.88;5465427;32;35042;-87
2023/05/25 14:21:54;;;;;;;5.68;5.12;;;;;;;25.23;57.13;100446.28;5461107;32;34309;-87
2023/05/25 14:25:17;;;;;;;5.35;4.85;;;;;;;25.09;58.11;100447.81;5458102;32;33819;-87
2023/05/25 14:28:24;;;;;;;6.85;5.22;;;;;;;25.24;57.78;100437.13;5462181;32;34961;-87
2023/05/25 14:31:30;;;;;;;10.43;5.62;;;;;;;25.67;55.26;100445.06;5472465;32;34042;-87
2023/05/25 14:34:35;;;;;;;5.72;5.22;;;;;;;25.69;54.01;100436.69;5472043;32;33950;-87
2023/05/25 14:37:42;;;;;;;8.05;4.78;;;;;;;25.65;53.96;100436.22;5469494;32;35991;-87
2023/05/25 14:40:49;;;;;;;5.57;5.00;;;;;;;25.63;55.61;100429.25;5462710;32;34130;-91
2023/05/25 14:43:55;;;;;;;5.57;5.00;;;;;;;25.39;55.59;100425.56;5462975;32;34148;-88
2023/05/25 14:47:00;;;;;;;6.50;5.40;;;;;;;25.79;56.17;100426.50;5457238;32;34411;-87
2023/05/25 14:50:07;;;;;;;8.77;6.18;;;;;;;25.95;54.51;100417.41;5472216;32;33967;-86
2023/05/25 14:53:13;;;;;;;10.30;5.78;;;;;;;25.56;56.52;100415.53;5455695;32;34273;-86
2023/05/25 14:56:20;;;;;;;7.65;6.07;;;;;;;25.37;58.84;100411.31;5462881;32;32656;-86
2023/05/25 14:59:25;;;;;;;6.10;5.50;;;;;;;25.19;60.28;100417.78;5456800;32;33733;-87
2023/05/25 15:02:38;;;;;;;7.28;6.22;;;;;;;25.31;57.96;100412.88;5459134;32;33990;-86
2023/05/25 15:05:45;;;;;;;6.85;5.93;;;;;;;25.60;58.26;100413.31;5454573;32;33747;-87
2023/05/25 15:08:50;;;;;;;6.55;5.40;;;;;;;25.73;56.64;100412.78;5459913;32;34840;-88
2023/05/25 15:11:54;;;;;;;8.43;5.50;;;;;;;25.59;56.37;100417.91;5464550;32;33738;-86
2023/05/25 15:15:00;;;;;;;5.82;5.22;;;;;;;25.27;58.40;100411.50;5455449;32;34864;-85
2023/05/25 15:18:06;;;;;;;5.72;5.12;;;;;;;25.12;57.67;100423.06;5456748;32;34172;-87
2023/05/25 15:21:13;;;;;;;5.85;5.30;;;;;;;25.42;56.45;100408.94;5467945;32;34009;-88
2023/05/25 15:24:18;;;;;;;5.95;5.37;;;;;;;25.47;56.52;100411.13;5464874;32;33896;-88
2023/05/25 15:27:25;;;;;;;5.80;5.22;;;;;;;25.43;56.50;100405.19;5463311;32;35125;-87
2023/05/25 15:30:35;;;;;;;6.90;5.43;;;;;;;25.45;59.12;100408.59;5457364;32;34793;-87
2023/05/25 15:33:45;;;;;;;5.97;5.37;;;;;;;25.28;59.18;100407.75;5455073;32;34420;-87
2023/05/25 15:37:04;;;;;;;8.02;5.43;;;;;;;25.03;60.59;100403.22;5454284;32;34857;-87
